sensor_id;sensor_type;location;lat;lon;timestamp;pressure;altitude;pressure_sealevel;temperature;humidity
64343;BME280;50675;53.530;-6.312;2022-11-14T12:24:57;99765.97;;;15.72;69.14
64343;BME280;50675;53.530;-6.312;2022-11-14T12:30:25;99742.97;;;15.65;69.10
64343;BME280;50675;53.530;-6.312;2022-11-14T12:36:11;99724.78;;;15.33;68.98
64343;BME280;50675;53.530;-6.312;2022-11-14T12:38:50;99747.09;;;15.49;68.94
64343;BME280;50675;53.530;-6.312;2022-11-14T12:41:33;99709.38;;;15.15;68.98
64343;BME280;50675;53.530;-6.312;2022-11-14T12:44:31;99747.19;;;15.44;68.71
64343;BME280;50675;53.530;-6.312;2022-11-14T12:47:20;99717.81;;;15.13;68.72
64343;BME280;50675;53.530;-6.312;2022-11-14T12:56:42;99710.44;;;14.86;68.59
64343;BME280;50675;53.530;-6.312;2022-11-14T13:01:59;99730.31;;;15.01;68.35
64343;BME280;50675;53.530;-6.312;2022-11-14T13:04:58;99699.75;;;14.76;68.29
64343;BME280;50675;53.530;-6.312;2022-11-14T14:31:38;99580.09;;;15.17;66.53
64343;BME280;50675;53.530;-6.312;2022-11-14T14:34:27;99583.53;;;15.09;66.24
64343;BME280;50675;53.530;-6.312;2022-11-14T14:37:15;99551.53;;;14.79;66.48
64343;BME280;50675;53.530;-6.312;2022-11-14T14:40:40;99603.41;;;14.96;66.26
64343;BME280;50675;53.530;-6.312;2022-11-14T14:54:23;99584.25;;;14.87;66.04
64343;BME280;50675;53.530;-6.312;2022-11-14T14:57:18;99561.28;;;14.80;65.89
64343;BME280;50675;53.530;-6.312;2022-11-14T15:00:03;99553.22;;;14.88;65.63
64343;BME280;50675;53.530;-6.312;2022-11-14T15:03:01;99566.03;;;14.61;65.72
64343;BME280;50675;53.530;-6.312;2022-11-14T15:05:46;99541.75;;;14.37;65.79
64343;BME280;50675;53.530;-6.312;2022-11-14T15:08:36;99566.22;;;14.51;65.67
64343;BME280;50675;53.530;-6.312;2022-11-14T15:11:18;99517.13;;;14.15;65.80
64343;BME280;50675;53.530;-6.312;2022-11-14T15:13:52;99535.44;;;14.23;65.91
64343;BME280;50675;53.530;-6.312;2022-11-14T15:16:22;99527.00;;;14.24;65.82
64343;BME280;50675;53.530;-6.312;2022-11-14T15:18:52;99520.22;;;14.08;65.61
64343;BME280;50675;53.530;-6.312;2022-11-14T15:21:27;99519.09;;;13.95;65.69
64343;BME280;50675;53.530;-6.312;2022-11-14T15:24:02;99526.56;;;14.03;65.82
64343;BME280;50675;53.530;-6.312;2022-11-14T15:26:42;99506.81;;;13.84;65.82
64343;BME280;50675;53.530;-6.312;2022-11-14T15:29:20;99504.09;;;13.84;65.32
64343;BME280;50675;53.530;-6.312;2022-11-14T15:32:03;99509.03;;;13.82;65.65
64343;BME280;50675;53.530;-6.312;2022-11-14T15:34:31;99510.81;;;13.73;65.78
64343;BME280;50675;53.530;-6.312;2022-11-14T15:39:45;99496.88;;;13.61;65.63
64343;BME280;50675;53.530;-6.312;2022-11-14T15:44:51;99478.56;;;13.53;65.62
64343;BME280;50675;53.530;-6.312;2022-11-14T15:49:59;99502.97;;;13.53;65.58
64343;BME280;50675;53.530;-6.312;2022-11-14T15:54:55;99462.31;;;12.97;65.35
64343;BME280;50675;53.530;-6.312;2022-11-14T15:57:22;99463.44;;;13.14;65.53
64343;BME280;50675;53.530;-6.312;2022-11-14T15:59:50;99449.19;;;13.04;65.57
64343;BME280;50675;53.530;-6.312;2022-11-14T16:02:33;99450.41;;;12.93;65.54
64343;BME280;50675;53.530;-6.312;2022-11-14T16:05:03;99467.00;;;12.91;65.48
64343;BME280;50675;53.530;-6.312;2022-11-14T16:07:28;99455.19;;;12.82;65.41
64343;BME280;50675;53.530;-6.312;2022-11-14T16:09:57;99439.31;;;12.52;65.24
64343;BME280;50675;53.530;-6.312;2022-11-14T16:12:47;99439.13;;;12.67;65.55
64343;BME280;50675;53.530;-6.312;2022-11-14T16:19:23;99458.25;;;12.76;65.31
64343;BME280;50675;53.530;-6.312;2022-11-14T16:22:35;99415.59;;;12.44;65.31
64343;BME280;50675;53.530;-6.312;2022-11-14T16:25:59;99414.63;;;12.35;65.35
64343;BME280;50675;53.530;-6.312;2022-11-14T16:29:14;99416.31;;;12.31;65.30
64343;BME280;50675;53.530;-6.312;2022-11-14T16:43:52;99421.19;;;12.28;65.20
64343;BME280;50675;53.530;-6.312;2022-11-14T16:56:33;99379.09;;;11.94;64.91
64343;BME280;50675;53.530;-6.312;2022-11-14T16:59:37;99396.75;;;11.91;64.91
64343;BME280;50675;53.530;-6.312;2022-11-14T17:02:22;99349.22;;;11.80;65.26
64343;BME280;50675;53.530;-6.312;2022-11-14T17:05:40;99350.22;;;11.31;65.08
64343;BME280;50675;53.530;-6.312;2022-11-14T17:11:26;99378.19;;;11.79;65.09
64343;BME280;50675;53.530;-6.312;2022-11-14T17:13:54;99378.34;;;11.88;65.14
64343;BME280;50675;53.530;-6.312;2022-11-14T17:16:21;99352.53;;;11.77;65.16
64343;BME280;50675;53.530;-6.312;2022-11-14T17:18:52;99359.28;;;11.74;64.99
64343;BME280;50675;53.530;-6.312;2022-11-14T17:21:19;99370.31;;;11.83;65.40
64343;BME280;50675;53.530;-6.312;2022-11-14T17:23:45;99364.78;;;11.64;65.22
64343;BME280;50675;53.530;-6.312;2022-11-14T17:26:14;99357.19;;;11.66;65.38
64343;BME280;50675;53.530;-6.312;2022-11-14T17:28:40;99341.66;;;11.53;65.42
64343;BME280;50675;53.530;-6.312;2022-11-14T17:31:10;99349.88;;;11.67;65.43
64343;BME280;50675;53.530;-6.312;2022-11-14T17:33:37;99336.09;;;11.68;65.29
64343;BME280;50675;53.530;-6.312;2022-11-14T17:36:06;99309.53;;;11.47;65.44
64343;BME280;50675;53.530;-6.312;2022-11-14T17:38:39;99335.59;;;11.61;65.14
64343;BME280;50675;53.530;-6.312;2022-11-14T17:41:08;99317.88;;;11.50;65.24
64343;BME280;50675;53.530;-6.312;2022-11-14T17:43:38;99311.25;;;11.37;65.02
64343;BME280;50675;53.530;-6.312;2022-11-14T17:46:16;99314.59;;;11.53;65.26
64343;BME280;50675;53.530;-6.312;2022-11-14T17:48:49;99312.38;;;11.31;65.22
64343;BME280;50675;53.530;-6.312;2022-11-14T17:51:15;99340.03;;;11.81;65.55
64343;BME280;50675;53.530;-6.312;2022-11-14T17:53:42;99285.63;;;11.59;65.47
64343;BME280;50675;53.530;-6.312;2022-11-14T17:56:19;99288.00;;;11.60;65.51
64343;BME280;50675;53.530;-6.312;2022-11-14T17:58:47;99253.06;;;11.45;65.33
64343;BME280;50675;53.530;-6.312;2022-11-14T18:01:15;99283.75;;;11.30;65.45
64343;BME280;50675;53.530;-6.312;2022-11-14T18:03:42;99286.13;;;11.61;65.37
64343;BME280;50675;53.530;-6.312;2022-11-14T18:06:10;99269.50;;;11.49;65.34
64343;BME280;50675;53.530;-6.312;2022-11-14T18:08:36;99260.63;;;11.43;65.47
64343;BME280;50675;53.530;-6.312;2022-11-14T18:11:03;99290.44;;;11.62;65.42
64343;BME280;50675;53.530;-6.312;2022-11-14T18:13:33;99261.03;;;11.55;65.37
64343;BME280;50675;53.530;-6.312;2022-11-14T18:16:00;99237.50;;;11.32;65.42
64343;BME280;50675;53.530;-6.312;2022-11-14T18:18:28;99245.50;;;11.42;65.48
64343;BME280;50675;53.530;-6.312;2022-11-14T18:20:56;99208.94;;;11.02;65.46
64343;BME280;50675;53.530;-6.312;2022-11-14T18:23:25;99225.75;;;11.41;65.35
64343;BME280;50675;53.530;-6.312;2022-11-14T18:25:54;99217.72;;;11.36;65.39
64343;BME280;50675;53.530;-6.312;2022-11-14T18:28:19;99202.19;;;11.47;65.55
64343;BME280;50675;53.530;-6.312;2022-11-14T18:30:54;99233.00;;;11.46;65.29
64343;BME280;50675;53.530;-6.312;2022-11-14T18:33:23;99227.31;;;11.71;65.53
64343;BME280;50675;53.530;-6.312;2022-11-14T18:35:58;99201.31;;;11.52;65.42
64343;BME280;50675;53.530;-6.312;2022-11-14T18:38:24;99179.66;;;11.75;65.34
64343;BME280;50675;53.530;-6.312;2022-11-14T18:40:53;99181.56;;;11.75;65.49
64343;BME280;50675;53.530;-6.312;2022-11-14T18:43:19;99170.75;;;11.75;65.41
64343;BME280;50675;53.530;-6.312;2022-11-14T18:45:45;99193.72;;;11.96;65.50
64343;BME280;50675;53.530;-6.312;2022-11-14T18:48:13;99142.53;;;11.81;65.37
64343;BME280;50675;53.530;-6.312;2022-11-14T18:50:39;99153.41;;;11.76;65.47
64343;BME280;50675;53.530;-6.312;2022-11-14T18:53:05;99120.38;;;11.79;65.45
64343;BME280;50675;53.530;-6.312;2022-11-14T18:55:39;99116.66;;;11.75;65.48
64343;BME280;50675;53.530;-6.312;2022-11-14T18:58:06;99127.91;;;11.82;65.40
64343;BME280;50675;53.530;-6.312;2022-11-14T19:00:34;99115.72;;;12.17;65.52
64343;BME280;50675;53.530;-6.312;2022-11-14T19:03:03;99114.03;;;12.21;65.71
64343;BME280;50675;53.530;-6.312;2022-11-14T19:05:29;99103.41;;;12.24;65.65
64343;BME280;50675;53.530;-6.312;2022-11-14T19:07:58;99089.56;;;12.26;65.64
64343;BME280;50675;53.530;-6.312;2022-11-14T19:10:26;99084.88;;;11.99;65.56
64343;BME280;50675;53.530;-6.312;2022-11-14T19:12:52;99086.22;;;12.02;65.60
64343;BME280;50675;53.530;-6.312;2022-11-14T19:15:20;99074.59;;;12.01;65.60
64343;BME280;50675;53.530;-6.312;2022-11-14T19:17:50;99048.63;;;12.00;65.66
64343;BME280;50675;53.530;-6.312;2022-11-14T19:20:24;99053.84;;;12.10;65.80
64343;BME280;50675;53.530;-6.312;2022-11-14T19:22:53;99063.91;;;12.23;65.64
64343;BME280;50675;53.530;-6.312;2022-11-14T19:25:21;99071.59;;;12.16;65.79
64343;BME280;50675;53.530;-6.312;2022-11-14T19:28:23;99034.94;;;12.24;65.83
64343;BME280;50675;53.530;-6.312;2022-11-14T19:31:01;99040.84;;;12.26;66.01
64343;BME280;50675;53.530;-6.312;2022-11-14T19:33:59;99030.31;;;12.24;65.95
64343;BME280;50675;53.530;-6.312;2022-11-14T19:36:26;99041.66;;;12.26;65.80
64343;BME280;50675;53.530;-6.312;2022-11-14T19:38:57;99032.72;;;12.26;65.70
64343;BME280;50675;53.530;-6.312;2022-11-14T19:41:35;99023.59;;;12.36;65.77
64343;BME280;50675;53.530;-6.312;2022-11-14T19:44:02;99012.81;;;12.49;65.84
64343;BME280;50675;53.530;-6.312;2022-11-14T19:46:28;99009.59;;;12.47;65.82
64343;BME280;50675;53.530;-6.312;2022-11-14T19:49:20;98990.72;;;12.42;65.78
64343;BME280;50675;53.530;-6.312;2022-11-14T19:51:49;98976.09;;;12.30;65.96
64343;BME280;50675;53.530;-6.312;2022-11-14T19:54:18;98966.97;;;12.53;66.02
64343;BME280;50675;53.530;-6.312;2022-11-14T19:56:44;98955.44;;;12.47;66.08
64343;BME280;50675;53.530;-6.312;2022-11-14T19:59:10;98977.28;;;12.64;66.06
64343;BME280;50675;53.530;-6.312;2022-11-14T20:02:13;98965.25;;;12.57;66.04
64343;BME280;50675;53.530;-6.312;2022-11-14T20:04:40;98954.22;;;12.53;66.13
64343;BME280;50675;53.530;-6.312;2022-11-14T20:07:28;98944.66;;;12.69;66.25
64343;BME280;50675;53.530;-6.312;2022-11-14T20:09:57;98942.28;;;12.68;66.03
64343;BME280;50675;53.530;-6.312;2022-11-14T20:12:23;98939.88;;;13.02;66.46
64343;BME280;50675;53.530;-6.312;2022-11-14T20:15:14;98934.19;;;12.90;66.10
64343;BME280;50675;53.530;-6.312;2022-11-14T20:18:01;98905.13;;;12.82;66.14
64343;BME280;50675;53.530;-6.312;2022-11-14T20:20:39;98913.25;;;12.82;66.20
64343;BME280;50675;53.530;-6.312;2022-11-14T20:23:22;98908.78;;;13.00;66.17
64343;BME280;50675;53.530;-6.312;2022-11-14T20:25:51;98932.28;;;13.27;66.27
64343;BME280;50675;53.530;-6.312;2022-11-14T20:32:22;98885.22;;;12.87;66.38
64343;BME280;50675;53.530;-6.312;2022-11-14T20:35:03;98866.91;;;13.06;66.33
64343;BME280;50675;53.530;-6.312;2022-11-14T20:41:19;98852.97;;;12.99;66.38
64343;BME280;50675;53.530;-6.312;2022-11-14T20:57:12;98823.97;;;13.22;66.43
64343;BME280;50675;53.530;-6.312;2022-11-14T20:59:37;98821.91;;;13.27;66.79
64343;BME280;50675;53.530;-6.312;2022-11-14T21:02:12;98811.75;;;13.33;66.74
64343;BME280;50675;53.530;-6.312;2022-11-14T21:04:39;98804.22;;;13.07;66.32
64343;BME280;50675;53.530;-6.312;2022-11-14T21:07:14;98805.22;;;13.11;66.74
64343;BME280;50675;53.530;-6.312;2022-11-14T21:09:43;98838.75;;;13.38;66.71
64343;BME280;50675;53.530;-6.312;2022-11-14T21:12:12;98793.38;;;13.07;66.55
64343;BME280;50675;53.530;-6.312;2022-11-14T21:14:38;98792.56;;;13.07;66.81
64343;BME280;50675;53.530;-6.312;2022-11-14T21:17:33;98798.72;;;13.12;66.79
64343;BME280;50675;53.530;-6.312;2022-11-14T21:20:24;98759.09;;;13.25;67.14
64343;BME280;50675;53.530;-6.312;2022-11-14T21:30:43;98784.63;;;13.33;67.10
64343;BME280;50675;53.530;-6.312;2022-11-14T21:33:15;98758.78;;;13.35;66.98
64343;BME280;50675;53.530;-6.312;2022-11-14T21:35:56;98756.03;;;13.27;67.02
64343;BME280;50675;53.530;-6.312;2022-11-14T21:38:30;98762.00;;;13.37;67.35
64343;BME280;50675;53.530;-6.312;2022-11-14T21:40:56;98742.81;;;13.25;67.31
64343;BME280;50675;53.530;-6.312;2022-11-14T21:47:21;98718.19;;;13.13;67.22
64343;BME280;50675;53.530;-6.312;2022-11-14T21:49:53;98731.06;;;13.38;67.64
64343;BME280;50675;53.530;-6.312;2022-11-14T21:52:41;98742.34;;;13.32;67.67
64343;BME280;50675;53.530;-6.312;2022-11-14T21:55:22;98709.00;;;13.31;67.42
64343;BME280;50675;53.530;-6.312;2022-11-14T21:57:59;98676.53;;;13.09;67.45
64343;BME280;50675;53.530;-6.312;2022-11-14T22:00:42;98680.69;;;13.06;67.62
64343;BME280;50675;53.530;-6.312;2022-11-14T22:03:13;98687.81;;;13.02;67.88
64343;BME280;50675;53.530;-6.312;2022-11-14T22:06:06;98663.03;;;13.18;67.84
64343;BME280;50675;53.530;-6.312;2022-11-14T22:08:32;98704.25;;;13.37;68.17
64343;BME280;50675;53.530;-6.312;2022-11-14T22:11:09;98690.66;;;13.28;68.07
64343;BME280;50675;53.530;-6.312;2022-11-14T22:13:59;98646.03;;;13.03;68.13
64343;BME280;50675;53.530;-6.312;2022-11-14T22:29:05;98621.41;;;13.13;68.83
64343;BME280;50675;53.530;-6.312;2022-11-14T22:46:55;98542.28;;;13.11;69.16
64343;BME280;50675;53.530;-6.312;2022-11-14T22:49:32;98563.78;;;12.99;69.60
64343;BME280;50675;53.530;-6.312;2022-11-14T22:52:01;98559.31;;;13.03;69.47
64343;BME280;50675;53.530;-6.312;2022-11-14T22:54:32;98533.06;;;13.12;69.59
64343;BME280;50675;53.530;-6.312;2022-11-14T23:00:45;98546.47;;;13.18;69.81
64343;BME280;50675;53.530;-6.312;2022-11-14T23:03:13;98522.72;;;13.23;69.98
64343;BME280;50675;53.530;-6.312;2022-11-14T23:06:21;98529.09;;;13.36;69.79
64343;BME280;50675;53.530;-6.312;2022-11-14T23:19:40;98514.28;;;13.42;70.11
64343;BME280;50675;53.530;-6.312;2022-11-14T23:22:28;98474.03;;;13.09;70.41
64343;BME280;50675;53.530;-6.312;2022-11-14T23:25:24;98478.81;;;13.04;70.50
64343;BME280;50675;53.530;-6.312;2022-11-14T23:28:08;98515.69;;;13.22;70.49
64343;BME280;50675;53.530;-6.312;2022-11-14T23:30:40;98464.00;;;13.01;70.67
64343;BME280;50675;53.530;-6.312;2022-11-14T23:41:12;98462.28;;;13.14;71.00
64343;BME280;50675;53.530;-6.312;2022-11-14T23:44:51;98443.28;;;13.23;70.80
64343;BME280;50675;53.530;-6.312;2022-11-14T23:48:38;98494.31;;;13.55;70.92
64343;BME280;50675;53.530;-6.312;2022-11-14T23:55:05;98452.69;;;13.42;71.16
64343;BME280;50675;53.530;-6.312;2022-11-14T23:59:23;98440.75;;;13.26;71.30
